Time;durP1;ratioP1;P1;durP2;ratioP2;P2;SDS_P1;SDS_P2;PMS_P1;PMS_P2;Temp;Humidity;BMP_temperature;BMP_pressure;BME280_temperature;BME280_humidity;BME280_pressure;Samples;Min_cycle;Max_cycle;Signal;HPM_P1;HPM_P2
2022/11/18 00:00:26;;;;;;;;;;;;;;;13.15;100.00;97065.06;5058045;28;19931;-42
2022/11/18 00:02:52;;;;;;;;;;;;;;;12.67;100.00;97069.47;5058828;28;20284;-42
2022/11/18 00:05:17;;;;;;;;;;;;;;;12.83;100.00;97080.34;5059347;28;19920;-42
2022/11/18 00:07:42;;;;;;;;;;;;;;;12.80;100.00;97083.16;5059606;28;19920;-42
2022/11/18 00:10:07;;;;;;;;;;;;;;;11.95;100.00;97085.66;5056737;28;19921;-42
2022/11/18 00:15:17;;;;;;;;;;;;;;;12.43;100.00;97096.09;5058278;28;20400;-42
2022/11/18 00:17:42;;;;;;;;;;;;;;;12.11;100.00;97104.31;5058790;28;19920;-42
2022/11/18 00:20:07;;;;;;;;;;;;;;;12.62;100.00;97093.03;5058022;28;19921;-42
2022/11/18 00:22:32;;;;;;;;;;;;;;;12.59;100.00;97079.50;5059029;28;19927;-42
2022/11/18 00:24:58;;;;;;;;;;;;;;;12.75;100.00;97088.66;5058659;28;19927;-42
2022/11/18 00:27:23;;;;;;;;;;;;;;;12.73;100.00;97093.09;5057043;28;19924;-42
2022/11/18 00:29:48;;;;;;;;;;;;;;;12.94;100.00;97082.97;5057716;28;19929;-42
2022/11/18 00:32:13;;;;;;;;;;;;;;;13.07;100.00;97076.91;5058118;28;20624;-42
2022/11/18 00:34:41;;;;;;;;;;;;;;;12.80;100.00;97090.91;5056745;28;20381;-42
2022/11/18 00:37:06;;;;;;;;;;;;;;;12.83;100.00;97089.84;5058830;28;19924;-42
2022/11/18 00:39:31;;;;;;;;;;;;;;;12.84;100.00;97088.91;5038913;28;20300;-42
2022/11/18 00:44:40;;;;;;;;;;;;;;;12.72;100.00;97106.94;5056718;28;19931;-42
2022/11/18 00:47:05;;;;;;;;;;;;;;;12.21;100.00;97114.00;5057427;28;19916;-42
2022/11/18 00:49:30;;;;;;;;;;;;;;;12.01;100.00;97115.34;5058004;28;19916;-42
2022/11/18 00:51:56;;;;;;;;;;;;;;;13.11;100.00;97107.59;5038626;28;19966;-43
2022/11/18 00:54:21;;;;;;;;;;;;;;;13.13;100.00;97097.13;5041421;28;20020;-42
2022/11/18 00:56:47;;;;;;;;;;;;;;;13.43;100.00;97085.50;5057328;28;19924;-43
2022/11/18 00:59:12;;;;;;;;;;;;;;;13.39;100.00;97090.09;5057019;28;19927;-43
2022/11/18 01:01:37;;;;;;;;;;;;;;;13.16;100.00;97086.59;5058588;28;19920;-43
2022/11/18 01:04:03;;;;;;;;;;;;;;;13.38;100.00;97086.66;5055632;28;20014;-42
2022/11/18 01:06:28;;;;;;;;;;;;;;;13.31;100.00;97089.84;5057367;28;19965;-42
2022/11/18 01:08:53;;;;;;;;;;;;;;;12.29;100.00;97097.06;5057536;28;19989;-42
2022/11/18 01:14:02;;;;;;;;;;;;;;;13.02;100.00;97104.84;5057518;28;19951;-42
2022/11/18 01:16:29;;;;;;;;;;;;;;;12.55;100.00;97108.13;5058310;28;19929;-42
2022/11/18 01:18:54;;;;;;;;;;;;;;;12.67;100.00;97110.78;5056346;28;20021;-42
2022/11/18 01:21:20;;;;;;;;;;;;;;;12.42;100.00;97122.81;5055875;28;19985;-42
2022/11/18 01:23:45;;;;;;;;;;;;;;;12.25;100.00;97120.59;5038870;28;19920;-42
2022/11/18 01:26:11;;;;;;;;;;;;;;;12.39;100.00;97132.56;5037798;28;19920;-42
2022/11/18 01:28:36;;;;;;;;;;;;;;;12.82;100.00;97120.03;5057537;28;19927;-42
2022/11/18 01:31:02;;;;;;;;;;;;;;;12.86;100.00;97121.44;5057001;28;19956;-42
2022/11/18 01:33:27;;;;;;;;;;;;;;;12.97;100.00;97113.75;5056870;28;19920;-42
2022/11/18 01:35:53;;;;;;;;;;;;;;;12.59;100.00;97129.41;5057585;28;19970;-42
2022/11/18 01:38:18;;;;;;;;;;;;;;;12.19;100.00;97144.25;5038541;28;19936;-43
2022/11/18 01:40:43;;;;;;;;;;;;;;;13.08;100.00;97130.25;5056409;28;19925;-43
2022/11/18 01:43:10;;;;;;;;;;;;;;;12.92;100.00;97121.00;5056543;28;19921;-42
2022/11/18 01:45:40;;;;;;;;;;;;;;;13.07;100.00;97115.66;5039703;28;19920;-42
2022/11/18 01:48:09;;;;;;;;;;;;;;;13.47;100.00;97120.56;5057673;28;19924;-42
2022/11/18 01:50:36;;;;;;;;;;;;;;;12.98;100.00;97115.41;5057571;28;19920;-42
2022/11/18 01:53:10;;;;;;;;;;;;;;;13.35;100.00;97119.69;5040251;28;19924;-42
2022/11/18 01:55:35;;;;;;;;;;;;;;;13.75;100.00;97119.31;5044974;28;19928;-42
2022/11/18 01:58:02;;;;;;;;;;;;;;;13.67;100.00;97117.31;5060791;28;19916;-42
2022/11/18 02:00:28;;;;;;;;;;;;;;;13.55;100.00;97113.88;5042274;28;19955;-42
2022/11/18 02:02:53;;;;;;;;;;;;;;;13.66;100.00;97120.84;5043368;28;20016;-42
2022/11/18 02:05:18;;;;;;;;;;;;;;;13.71;100.00;97121.31;5061828;28;20273;-42
2022/11/18 02:07:44;;;;;;;;;;;;;;;12.97;100.00;97116.31;5044225;28;20349;-42
2022/11/18 02:10:17;;;;;;;;;;;;;;;13.00;100.00;97124.81;5057623;28;20097;-42
2022/11/18 02:12:42;;;;;;;;;;;;;;;13.25;100.00;97126.44;5060969;28;20266;-42
2022/11/18 02:15:08;;;;;;;;;;;;;;;13.94;100.00;97116.19;5025969;28;19920;-43
2022/11/18 02:17:44;;;;;;;;;;;;;;;13.79;100.00;97113.78;5061743;28;20433;-42
2022/11/18 02:20:18;;;;;;;;;;;;;;;14.01;100.00;97107.81;5042468;28;19959;-42
2022/11/18 02:22:47;;;;;;;;;;;;;;;13.25;100.00;97111.78;5043409;28;19920;-42
2022/11/18 02:25:31;;;;;;;;;;;;;;;13.41;100.00;97131.34;5060332;28;19939;-42
2022/11/18 02:28:02;;;;;;;;;;;;;;;13.27;100.00;97130.56;5061145;28;19921;-42
2022/11/18 02:30:28;;;;;;;;;;;;;;;13.49;100.00;97123.84;5060044;28;19970;-42
2022/11/18 02:33:00;;;;;;;;;;;;;;;12.84;100.00;97144.00;5042547;28;19920;-42
2022/11/18 02:35:27;;;;;;;;;;;;;;;13.39;100.00;97128.88;5042117;28;19992;-42
2022/11/18 02:37:52;;;;;;;;;;;;;;;13.66;100.00;97136.38;5059380;28;19931;-42
2022/11/18 02:40:22;;;;;;;;;;;;;;;13.77;100.00;97133.78;5059589;28;19920;-42
2022/11/18 02:42:49;;;;;;;;;;;;;;;13.27;100.00;97145.25;5040913;28;19920;-42
2022/11/18 02:45:16;;;;;;;;;;;;;;;12.65;100.00;97159.13;5042732;28;19969;-42
2022/11/18 02:47:41;;;;;;;;;;;;;;;13.27;100.00;97147.81;5041243;28;19924;-42
2022/11/18 02:50:10;;;;;;;;;;;;;;;12.78;100.00;97152.19;5058690;28;20410;-42
2022/11/18 02:52:36;;;;;;;;;;;;;;;12.55;100.00;97164.13;5026729;28;19920;-42
2022/11/18 02:55:02;;;;;;;;;;;;;;;13.40;100.00;97153.78;5041831;28;19920;-42
2022/11/18 02:57:28;;;;;;;;;;;;;;;14.02;100.00;97139.69;5041264;28;19936;-42
2022/11/18 02:59:54;;;;;;;;;;;;;;;13.76;100.00;97141.69;5058589;28;20407;-42
2022/11/18 03:02:19;;;;;;;;;;;;;;;13.38;100.00;97143.56;5060299;28;19920;-42
2022/11/18 03:04:45;;;;;;;;;;;;;;;12.50;100.00;97167.03;5058976;28;20818;-42
2022/11/18 03:07:33;;;;;;;;;;;;;;;12.72;100.00;97162.94;5059718;28;20007;-42
2022/11/18 03:09:58;;;;;;;;;;;;;;;12.98;100.00;97161.91;5041764;28;20303;-43
2022/11/18 03:12:30;;;;;;;;;;;;;;;13.11;100.00;97161.03;5060466;28;19924;-42
2022/11/18 03:15:01;;;;;;;;;;;;;;;13.21;100.00;97162.03;5041903;28;20490;-42
2022/11/18 03:17:27;;;;;;;;;;;;;;;13.00;100.00;97168.72;5059297;28;19932;-42
2022/11/18 03:19:55;;;;;;;;;;;;;;;12.69;100.00;97186.41;5058609;28;20364;-42
2022/11/18 03:22:23;;;;;;;;;;;;;;;12.82;100.00;97179.44;5060364;28;19926;-43
2022/11/18 03:24:53;;;;;;;;;;;;;;;13.62;100.00;97176.31;5039632;28;19917;-42
2022/11/18 03:27:20;;;;;;;;;;;;;;;13.23;100.00;97182.59;5041116;28;19917;-42
2022/11/18 03:29:52;;;;;;;;;;;;;;;12.76;100.00;97182.44;5024263;28;19959;-42
2022/11/18 03:32:19;;;;;;;;;;;;;;;12.69;100.00;97196.72;5042744;28;20435;-42
2022/11/18 03:34:45;;;;;;;;;;;;;;;13.23;100.00;97188.59;5058774;28;19920;-42
2022/11/18 03:37:11;;;;;;;;;;;;;;;13.22;100.00;97193.88;5041007;28;19979;-43
2022/11/18 03:39:38;;;;;;;;;;;;;;;13.35;100.00;97195.50;5039918;28;19964;-42
2022/11/18 03:42:07;;;;;;;;;;;;;;;12.69;100.00;97202.72;5039893;28;19920;-42
2022/11/18 03:44:33;;;;;;;;;;;;;;;12.62;100.00;97205.84;5039886;28;19930;-42
2022/11/18 03:47:19;;;;;;;;;;;;;;;12.91;100.00;97212.38;5040995;28;19921;-42
2022/11/18 03:49:45;;;;;;;;;;;;;;;13.08;100.00;97215.53;5040161;28;19920;-42
2022/11/18 03:52:13;;;;;;;;;;;;;;;13.72;100.00;97197.97;5041331;28;19924;-42
2022/11/18 03:54:38;;;;;;;;;;;;;;;13.27;100.00;97195.19;5023382;28;19927;-42
2022/11/18 03:57:11;;;;;;;;;;;;;;;13.68;100.00;97199.13;5058745;28;20304;-42
2022/11/18 03:59:42;;;;;;;;;;;;;;;14.02;100.00;97194.06;5024376;28;19921;-42
2022/11/18 04:02:09;;;;;;;;;;;;;;;13.55;100.00;97193.25;5041600;28;19917;-41
2022/11/18 04:04:35;;;;;;;;;;;;;;;13.55;100.00;97193.25;5057411;28;19963;-42
2022/11/18 04:07:12;;;;;;;;;;;;;;;13.04;100.00;97201.16;5040557;28;20597;-42
2022/11/18 04:09:40;;;;;;;;;;;;;;;13.05;100.00;97210.59;5058181;28;20004;-41
2022/11/18 04:12:07;;;;;;;;;;;;;;;13.07;100.00;97208.69;5039692;28;20650;-42
2022/11/18 04:14:33;;;;;;;;;;;;;;;12.48;100.00;97224.88;5056021;28;20005;-41
2022/11/18 04:16:58;;;;;;;;;;;;;;;13.17;100.00;97218.28;5038601;28;19932;-41
2022/11/18 04:19:24;;;;;;;;;;;;;;;13.25;100.00;97214.31;5058951;28;19924;-41
2022/11/18 04:21:49;;;;;;;;;;;;;;;13.29;100.00;97210.63;5056636;28;19965;-42
2022/11/18 04:24:14;;;;;;;;;;;;;;;13.00;100.00;97216.09;5057091;28;19931;-42
2022/11/18 04:26:40;;;;;;;;;;;;;;;12.41;100.00;97226.22;5057263;28;19924;-42
2022/11/18 04:29:05;;;;;;;;;;;;;;;13.03;100.00;97220.22;5058025;28;19923;-42
2022/11/18 04:31:30;;;;;;;;;;;;;;;12.10;100.00;97223.91;5056020;28;19927;-42
2022/11/18 04:33:55;;;;;;;;;;;;;;;11.95;100.00;97255.06;5057263;28;19920;-42
2022/11/18 04:36:20;;;;;;;;;;;;;;;11.67;100.00;97255.06;5058353;28;19924;-42
2022/11/18 04:38:46;;;;;;;;;;;;;;;11.64;100.00;97255.28;5057613;28;19920;-42
2022/11/18 04:41:11;;;;;;;;;;;;;;;11.59;100.00;97265.06;5058474;28;20370;-42
2022/11/18 04:43:36;;;;;;;;;;;;;;;11.37;100.00;97272.50;5056981;28;19930;-41
2022/11/18 04:46:01;;;;;;;;;;;;;;;11.63;100.00;97266.53;5057057;28;19927;-41
2022/11/18 04:48:27;;;;;;;;;;;;;;;11.24;100.00;97278.44;5056329;28;19920;-42
2022/11/18 04:50:52;;;;;;;;;;;;;;;11.29;100.00;97291.84;5057317;28;20015;-42
2022/11/18 04:53:17;;;;;;;;;;;;;;;12.05;100.00;97289.66;5058818;28;19927;-42
2022/11/18 04:55:42;;;;;;;;;;;;;;;12.19;100.00;97281.84;5054658;28;19967;-41
2022/11/18 04:58:08;;;;;;;;;;;;;;;11.63;100.00;97282.00;5057096;28;20807;-42
2022/11/18 05:00:33;;;;;;;;;;;;;;;12.19;100.00;97287.00;5038094;28;19951;-42
2022/11/18 05:02:58;;;;;;;;;;;;;;;12.66;100.00;97279.59;5055821;28;19920;-41
2022/11/18 05:05:23;;;;;;;;;;;;;;;11.93;100.00;97283.56;5040141;28;19920;-42
2022/11/18 05:07:49;;;;;;;;;;;;;;;11.48;100.00;97290.69;5057628;28;20006;-42
2022/11/18 05:10:15;;;;;;;;;;;;;;;11.94;100.00;97287.78;5056978;28;20114;-41
2022/11/18 05:12:49;;;;;;;;;;;;;;;11.94;100.00;97282.63;5056376;28;19925;-42
2022/11/18 05:15:15;;;;;;;;;;;;;;;11.90;100.00;97287.13;5056916;28;19925;-42
2022/11/18 05:17:40;;;;;;;;;;;;;;;12.40;100.00;97284.75;5055970;28;20297;-42
2022/11/18 05:20:05;;;;;;;;;;;;;;;13.19;100.00;97278.44;5037421;28;19917;-41
2022/11/18 05:22:31;;;;;;;;;;;;;;;13.02;100.00;97270.22;5057865;28;19925;-41
2022/11/18 05:24:56;;;;;;;;;;;;;;;12.68;100.00;97269.97;5022049;28;19924;-41
2022/11/18 05:27:21;;;;;;;;;;;;;;;12.28;100.00;97285.56;5058376;28;19927;-41
2022/11/18 05:29:46;;;;;;;;;;;;;;;12.70;100.00;97286.19;5058464;28;20016;-41
2022/11/18 05:32:12;;;;;;;;;;;;;;;12.93;100.00;97282.88;5039818;28;19955;-41
2022/11/18 05:34:38;;;;;;;;;;;;;;;11.66;100.00;97289.53;5054423;28;20300;-41
2022/11/18 05:37:03;;;;;;;;;;;;;;;12.43;100.00;97305.22;5053059;28;20391;-41
2022/11/18 05:39:28;;;;;;;;;;;;;;;12.08;100.00;97302.34;5057810;28;20003;-42
2022/11/18 05:44:37;;;;;;;;;;;;;;;11.70;100.00;97318.53;5056734;28;19923;-41
2022/11/18 05:47:02;;;;;;;;;;;;;;;11.51;100.00;97327.41;5054886;28;19916;-41
2022/11/18 05:49:28;;;;;;;;;;;;;;;11.93;100.00;97322.25;5056033;28;19924;-41
2022/11/18 05:51:53;;;;;;;;;;;;;;;12.52;100.00;97316.66;5055135;28;19920;-42
2022/11/18 05:54:18;;;;;;;;;;;;;;;13.00;100.00;97314.28;5022731;28;20342;-41
2022/11/18 05:56:43;;;;;;;;;;;;;;;12.62;100.00;97299.63;5038201;28;19991;-41
2022/11/18 05:59:09;;;;;;;;;;;;;;;13.22;100.00;97300.66;5056803;28;20105;-41
2022/11/18 06:01:36;;;;;;;;;;;;;;;13.49;100.00;97287.59;5057454;28;19935;-41
2022/11/18 06:04:01;;;;;;;;;;;;;;;13.27;100.00;97293.41;5055571;28;19920;-42
2022/11/18 06:06:26;;;;;;;;;;;;;;;12.55;100.00;97313.88;5038585;28;20416;-41
2022/11/18 06:08:54;;;;;;;;;;;;;;;13.00;100.00;97319.44;5037048;28;19939;-41
2022/11/18 06:11:19;;;;;;;;;;;;;;;12.64;100.00;97320.19;5039470;28;19970;-41
2022/11/18 06:13:52;;;;;;;;;;;;;;;12.95;100.00;97332.69;5039695;28;19920;-41
2022/11/18 06:16:17;;;;;;;;;;;;;;;12.86;100.00;97325.53;5044090;28;19924;-42
2022/11/18 06:18:43;;;;;;;;;;;;;;;12.39;100.00;97324.41;5039684;28;19917;-42
2022/11/18 06:21:08;;;;;;;;;;;;;;;13.27;100.00;97332.19;5055536;28;19921;-41
2022/11/18 06:23:34;;;;;;;;;;;;;;;13.55;100.00;97332.91;5038802;28;19973;-41
2022/11/18 06:25:59;;;;;;;;;;;;;;;13.92;100.00;97325.09;5056446;28;19962;-42
2022/11/18 06:28:24;;;;;;;;;;;;;;;13.90;100.00;97326.94;5039888;28;19927;-42
2022/11/18 06:30:49;;;;;;;;;;;;;;;13.79;100.00;97325.94;5056708;28;20415;-42
2022/11/18 06:33:14;;;;;;;;;;;;;;;13.73;100.00;97334.16;5057293;28;19920;-42
2022/11/18 06:35:41;;;;;;;;;;;;;;;13.26;100.00;97335.72;5054527;28;19932;-42
2022/11/18 06:38:06;;;;;;;;;;;;;;;13.57;100.00;97356.88;5039446;28;19920;-42
2022/11/18 06:40:31;;;;;;;;;;;;;;;13.68;100.00;97351.75;5056910;28;19927;-42
2022/11/18 06:46:54;;;;;;;;;;;;;;;13.65;100.00;97364.91;5059665;28;20028;-42
2022/11/18 06:48:26;;;;;;;;;;;;;;;13.64;100.00;97365.88;5059981;28;20291;-42
2022/11/18 06:50:51;;;;;;;;;;;;;;;13.82;100.00;97368.88;5059594;28;19920;-41
2022/11/18 06:53:16;;;;;;;;;;;;;;;14.01;100.00;97363.22;5059072;28;20293;-42
2022/11/18 06:55:41;;;;;;;;;;;;;;;13.85;100.00;97378.22;5058716;28;19960;-42
2022/11/18 06:58:06;;;;;;;;;;;;;;;13.12;100.00;97385.78;5059562;28;19978;-42
2022/11/18 07:00:32;;;;;;;;;;;;;;;13.23;100.00;97398.00;5060123;28;19962;-42
2022/11/18 07:02:57;;;;;;;;;;;;;;;13.86;100.00;97393.63;5059398;28;19923;-41
2022/11/18 07:05:22;;;;;;;;;;;;;;;13.84;100.00;97395.47;5060044;28;19916;-41
2022/11/18 07:07:47;;;;;;;;;;;;;;;13.87;100.00;97402.22;5060555;28;19920;-41
2022/11/18 07:10:13;;;;;;;;;;;;;;;13.58;100.00;97397.34;5057155;28;20003;-42
2022/11/18 07:12:38;;;;;;;;;;;;;;;13.72;100.00;97412.69;5060510;28;20352;-42
2022/11/18 07:15:03;;;;;;;;;;;;;;;13.77;100.00;97420.97;5058185;28;20599;-42
2022/11/18 07:17:29;;;;;;;;;;;;;;;13.70;100.00;97427.50;5059066;28;20019;-41
2022/11/18 07:19:54;;;;;;;;;;;;;;;13.91;100.00;97421.75;5058535;28;20388;-41
2022/11/18 07:22:19;;;;;;;;;;;;;;;13.90;100.00;97427.88;5057056;28;19963;-42
2022/11/18 07:24:44;;;;;;;;;;;;;;;13.91;100.00;97429.50;5059098;28;19916;-41
2022/11/18 07:27:10;;;;;;;;;;;;;;;13.91;100.00;97435.53;5059714;28;19921;-41
2022/11/18 07:29:35;;;;;;;;;;;;;;;13.96;100.00;97433.44;5057548;28;19966;-41
2022/11/18 07:32:00;;;;;;;;;;;;;;;13.98;100.00;97436.75;5060188;28;19925;-41
2022/11/18 07:34:25;;;;;;;;;;;;;;;13.90;100.00;97435.63;5060000;28;20855;-42
2022/11/18 07:36:51;;;;;;;;;;;;;;;13.56;100.00;97445.75;5059242;28;19924;-41
2022/11/18 07:39:16;;;;;;;;;;;;;;;13.13;100.00;97449.47;5056980;28;19916;-41
2022/11/18 07:41:41;;;;;;;;;;;;;;;13.29;100.00;97467.38;5041516;28;19921;-41
2022/11/18 07:44:06;;;;;;;;;;;;;;;13.50;100.00;97464.25;5059662;28;19924;-41
2022/11/18 07:46:33;;;;;;;;;;;;;;;13.90;100.00;97466.69;5058881;28;20358;-41
2022/11/18 07:48:59;;;;;;;;;;;;;;;14.04;100.00;97460.53;5058016;28;20925;-42
2022/11/18 07:51:25;;;;;;;;;;;;;;;13.98;100.00;97461.78;5056372;28;20042;-42
2022/11/18 07:53:50;;;;;;;;;;;;;;;14.13;100.00;97460.72;5057807;28;19920;-42
2022/11/18 07:56:16;;;;;;;;;;;;;;;13.75;100.00;97474.59;5058269;28;20478;-42
2022/11/18 07:58:41;;;;;;;;;;;;;;;13.67;100.00;97478.66;5055854;28;19920;-42
2022/11/18 08:01:07;;;;;;;;;;;;;;;13.97;100.00;97473.09;5038147;28;20003;-42
2022/11/18 08:03:32;;;;;;;;;;;;;;;14.31;100.00;97473.28;5040566;28;19927;-41
2022/11/18 08:05:58;;;;;;;;;;;;;;;13.94;100.00;97475.91;5039991;28;19916;-41
2022/11/18 08:08:23;;;;;;;;;;;;;;;14.25;100.00;97481.50;5059057;28;20011;-42
2022/11/18 08:10:49;;;;;;;;;;;;;;;14.41;100.00;97474.25;5058636;28;19928;-41
2022/11/18 08:13:14;;;;;;;;;;;;;;;13.92;100.00;97477.78;5039265;28;19920;-41
2022/11/18 08:15:41;;;;;;;;;;;;;;;13.58;100.00;97487.84;5057842;28;19925;-41
2022/11/18 08:18:06;;;;;;;;;;;;;;;14.03;100.00;97493.38;5055909;28;19936;-41
2022/11/18 08:20:32;;;;;;;;;;;;;;;13.70;100.00;97484.41;5059344;28;19917;-42
2022/11/18 08:22:58;;;;;;;;;;;;;;;14.19;100.00;97490.53;5057910;28;20350;-42
2022/11/18 08:25:23;;;;;;;;;;;;;;;14.46;100.00;97487.75;5058835;28;19956;-41
2022/11/18 08:27:48;;;;;;;;;;;;;;;14.62;100.00;97482.31;5057161;28;20406;-42
2022/11/18 08:30:13;;;;;;;;;;;;;;;14.51;100.00;97492.59;5059218;28;20497;-42
2022/11/18 08:32:39;;;;;;;;;;;;;;;14.62;100.00;97487.50;5056461;28;19974;-42
2022/11/18 08:35:04;;;;;;;;;;;;;;;14.62;100.00;97492.66;5057193;28;19935;-41
2022/11/18 08:37:29;;;;;;;;;;;;;;;14.68;100.00;97487.03;5022017;28;20654;-41
2022/11/18 08:39:54;;;;;;;;;;;;;;;14.62;100.00;97492.66;5056297;28;19924;-41
2022/11/18 08:42:21;;;;;;;;;;;;;;;14.72;100.00;97492.81;5057544;28;19920;-42
2022/11/18 08:44:46;;;;;;;;;;;;;;;14.79;100.00;97494.00;5059805;28;20102;-41
2022/11/18 08:47:11;;;;;;;;;;;;;;;14.28;100.00;97504.56;5055852;28;19926;-41
2022/11/18 08:49:37;;;;;;;;;;;;;;;14.62;100.00;97503.84;5057785;28;19921;-41
2022/11/18 08:52:02;;;;;;;;;;;;;;;14.15;100.00;97515.78;5058008;28;19935;-41
2022/11/18 08:54:27;;;;;;;;;;;;;;;13.43;100.00;97530.28;5056634;28;19931;-41
2022/11/18 08:56:52;;;;;;;;;;;;;;;14.27;100.00;97534.81;5057840;28;19924;-41
2022/11/18 08:59:18;;;;;;;;;;;;;;;14.34;100.00;97523.09;5057796;28;19960;-41
2022/11/18 09:01:43;;;;;;;;;;;;;;;14.04;100.00;97522.66;5057984;28;20436;-41
2022/11/18 09:04:09;;;;;;;;;;;;;;;14.58;100.00;97528.31;5040451;28;19920;-41
2022/11/18 09:06:34;;;;;;;;;;;;;;;14.47;100.00;97525.63;5039271;28;20158;-41
2022/11/18 09:08:59;;;;;;;;;;;;;;;13.92;100.00;97524.34;5058426;28;20015;-41
2022/11/18 09:11:25;;;;;;;;;;;;;;;13.87;100.00;97539.38;5056708;28;20157;-41
2022/11/18 09:13:54;;;;;;;;;;;;;;;14.23;100.00;97538.53;5053055;28;19916;-41
2022/11/18 09:16:22;;;;;;;;;;;;;;;14.86;100.00;97531.50;5057929;28;19920;-41
2022/11/18 09:18:47;;;;;;;;;;;;;;;13.96;100.00;97533.56;5057137;28;19916;-41
2022/11/18 09:21:12;;;;;;;;;;;;;;;14.66;100.00;97532.13;5057859;28;19927;-41
2022/11/18 09:23:38;;;;;;;;;;;;;;;14.36;100.00;97541.13;5056757;28;20446;-45
2022/11/18 09:26:07;;;;;;;;;;;;;;;14.16;100.00;97542.50;5056774;28;20301;-41
2022/11/18 09:28:32;;;;;;;;;;;;;;;14.37;100.00;97550.56;5058277;28;20010;-41
2022/11/18 09:30:57;;;;;;;;;;;;;;;14.87;100.00;97548.72;5057507;28;20014;-42
2022/11/18 09:33:23;;;;;;;;;;;;;;;14.86;100.00;97541.88;5021900;28;20292;-42
2022/11/18 09:35:48;;;;;;;;;;;;;;;15.12;100.00;97537.38;5056969;28;19916;-42
2022/11/18 09:38:13;;;;;;;;;;;;;;;14.70;100.00;97541.31;5055691;28;19986;-42
2022/11/18 09:40:43;;;;;;;;;;;;;;;13.78;100.00;97559.75;5058126;28;20431;-42
2022/11/18 09:43:19;;;;;;;;;;;;;;;14.82;100.00;97556.84;5040528;28;19923;-42
2022/11/18 09:45:44;;;;;;;;;;;;;;;15.17;100.00;97547.41;5037896;28;19920;-42
2022/11/18 09:48:17;;;;;;;;;;;;;;;15.20;100.00;97547.16;5039405;28;20337;-42
2022/11/18 09:50:42;;;;;;;;;;;;;;;15.34;100.00;97556.53;5039284;28;20019;-41
2022/11/18 09:53:17;;;;;;;;;;;;;;;15.14;100.00;97550.22;5022183;28;20551;-41
2022/11/18 09:55:42;;;;;;;;;;;;;;;15.12;100.00;97558.13;5027328;28;19924;-42
2022/11/18 09:58:10;;;;;;;;;;;;;;;15.24;100.00;97559.78;5039957;28;21054;-41
2022/11/18 10:00:35;;;;;;;;;;;;;;;15.29;100.00;97549.09;5038218;28;19920;-41
2022/11/18 10:03:05;;;;;;;;;;;;;;;15.28;100.00;97555.22;5039476;28;19920;-41
2022/11/18 10:05:32;;;;;;;;;;;;;;;15.11;100.00;97561.63;5056620;28;19948;-41
2022/11/18 10:08:03;;;;;;;;;;;;;;;14.82;100.00;97582.75;5038406;28;20507;-42
2022/11/18 10:10:47;;;;;;;;;;;;;;;14.64;100.00;97581.44;5056308;28;19920;-41
2022/11/18 10:13:15;;;;;;;;;;;;;;;15.02;100.00;97593.44;5055970;28;19962;-41
2022/11/18 10:15:42;;;;;;;;;;;;;;;15.28;100.00;97575.97;5058839;28;19926;-41
2022/11/18 10:18:20;;;;;;;;;;;;;;;15.36;100.00;97573.63;5024770;28;19921;-41
2022/11/18 10:20:55;;;;;;;;;;;;;;;15.03;100.00;97580.34;5060445;28;20516;-41
2022/11/18 10:23:41;;;;;;;;;;;;;;;15.52;100.00;97575.06;5026271;28;20297;-41
2022/11/18 10:26:06;;;;;;;;;;;;;;;15.67;100.00;97586.91;5045284;28;19920;-41
2022/11/18 10:28:31;;;;;;;;;;;;;;;15.80;100.00;97584.22;5061191;28;19916;-41
2022/11/18 10:31:06;;;;;;;;;;;;;;;15.64;100.00;97589.72;5061103;28;19973;-41
2022/11/18 10:33:32;;;;;;;;;;;;;;;15.42;100.00;97591.31;5040897;28;19963;-41
2022/11/18 10:36:07;;;;;;;;;;;;;;;13.94;100.00;97611.31;5042814;28;20007;-41
2022/11/18 10:38:32;;;;;;;;;;;;;;;15.41;100.00;97599.22;5058468;28;19939;-41
2022/11/18 10:40:59;;;;;;;;;;;;;;;15.80;100.00;97592.81;5060127;28;19916;-41
2022/11/18 10:43:42;;;;;;;;;;;;;;;15.97;100.00;97585.53;5060239;28;19924;-41
2022/11/18 10:46:14;;;;;;;;;;;;;;;15.83;100.00;97584.00;5059286;28;20483;-41
2022/11/18 10:48:39;;;;;;;;;;;;;;;15.68;100.00;97596.31;5059797;28;19938;-42
2022/11/18 10:51:19;;;;;;;;;;;;;;;16.05;100.00;97590.97;5060614;28;20373;-42
2022/11/18 10:53:44;;;;;;;;;;;;;;;16.28;100.00;97586.56;5059895;28;19928;-42
2022/11/18 10:56:10;;;;;;;;;;;;;;;16.35;100.00;97582.56;5060549;28;19924;-42
2022/11/18 10:58:56;;;;;;;;;;;;;;;16.23;100.00;97578.31;5042166;28;20011;-41
2022/11/18 11:01:22;;;;;;;;;;;;;;;15.78;100.00;97586.94;5058783;28;19921;-42
2022/11/18 11:04:03;;;;;;;;;;;;;;;15.80;100.00;97585.03;5043537;28;19943;-42
2022/11/18 11:06:29;;;;;;;;;;;;;;;15.99;100.00;97586.25;5060218;28;20444;-42
2022/11/18 11:08:56;;;;;;;;;;;;;;;14.94;100.00;97606.94;5059575;28;19925;-41
2022/11/18 11:11:25;;;;;;;;;;;;;;;15.30;100.00;97610.38;5058991;28;19921;-41
2022/11/18 11:13:51;;;;;;;;;;;;;;;15.23;100.00;97611.78;5060749;28;20121;-41
2022/11/18 11:16:16;;;;;;;;;;;;;;;15.57;100.00;97609.28;5028438;28;19971;-41
2022/11/18 11:18:41;;;;;;;;;;;;;;;15.56;100.00;97602.44;5058998;28;20409;-42
2022/11/18 11:21:11;;;;;;;;;;;;;;;15.31;100.00;97619.81;5059701;28;19990;-42
2022/11/18 11:23:36;;;;;;;;;;;;;;;15.03;100.00;97621.03;5058725;28;19974;-41
2022/11/18 11:26:08;;;;;;;;;;;;;;;14.87;100.00;97621.28;5058530;28;20519;-41
2022/11/18 11:28:33;;;;;;;;;;;;;;;15.01;100.00;97631.50;5060344;28;20003;-41
2022/11/18 11:31:10;;;;;;;;;;;;;;;14.89;100.00;97637.53;5058259;28;19921;-42
2022/11/18 11:33:41;;;;;;;;;;;;;;;15.23;100.00;97632.50;5058639;28;19924;-42
2022/11/18 11:36:16;;;;;;;;;;;;;;;15.24;100.00;97623.81;5039811;28;20336;-42
2022/11/18 11:38:54;;;;;;;;;;;;;;;15.44;100.00;97619.72;5039420;28;19920;-42
2022/11/18 11:41:23;;;;;;;;;;;;;;;15.36;100.00;97622.91;5059200;28;19927;-41
2022/11/18 11:43:48;;;;;;;;;;;;;;;15.14;100.00;97628.00;5059037;28;19916;-41
2022/11/18 11:46:16;;;;;;;;;;;;;;;14.68;100.00;97631.31;5054690;28;19916;-42
2022/11/18 11:48:50;;;;;;;;;;;;;;;14.58;100.00;97642.31;5055538;28;19964;-42
2022/11/18 11:51:27;;;;;;;;;;;;;;;14.93;100.00;97646.75;5058571;28;20510;-42
2022/11/18 11:53:55;;;;;;;;;;;;;;;14.82;100.00;97644.94;5059096;28;20003;-42
2022/11/18 11:56:20;;;;;;;;;;;;;;;14.98;100.00;97649.84;5058892;28;19928;-42
2022/11/18 11:58:55;;;;;;;;;;;;;;;15.52;100.00;97637.34;5057217;28;19917;-42
2022/11/18 12:01:30;;;;;;;;;;;;;;;15.24;100.00;97636.78;5040806;28;19916;-41
2022/11/18 12:04:11;;;;;;;;;;;;;;;15.02;100.00;97638.31;5058952;28;19916;-42
2022/11/18 12:06:36;;;;;;;;;;;;;;;15.26;100.00;97638.31;5054933;28;19920;-42
2022/11/18 12:09:03;;;;;;;;;;;;;;;14.58;100.00;97652.69;5058050;28;19974;-40
2022/11/18 12:11:32;;;;;;;;;;;;;;;15.13;100.00;97662.66;5041308;28;20074;-41
2022/11/18 12:14:10;;;;;;;;;;;;;;;15.52;100.00;97647.72;5059115;28;19917;-41
2022/11/18 12:16:39;;;;;;;;;;;;;;;14.44;100.00;97660.56;5039872;28;19990;-41
2022/11/18 12:19:13;;;;;;;;;;;;;;;13.93;100.00;97676.09;5057393;28;19989;-41
2022/11/18 12:21:44;;;;;;;;;;;;;;;14.03;100.00;97679.75;5041732;28;20393;-41
2022/11/18 12:24:15;;;;;;;;;;;;;;;14.42;100.00;97689.16;5055282;28;20459;-42
2022/11/18 12:26:41;;;;;;;;;;;;;;;13.66;100.00;97687.38;5056859;28;20431;-42
2022/11/18 12:29:18;;;;;;;;;;;;;;;14.14;100.00;97703.16;5058018;28;19958;-46
2022/11/18 12:31:50;;;;;;;;;;;;;;;14.17;100.00;97699.53;5059285;28;19962;-45
2022/11/18 12:34:20;;;;;;;;;;;;;;;14.07;100.00;97704.50;5057070;28;19924;-46
2022/11/18 12:36:46;;;;;;;;;;;;;;;14.09;100.00;97702.59;5040499;28;19920;-46
2022/11/18 12:39:26;;;;;;;;;;;;;;;13.91;100.00;97699.50;5038586;28;19950;-46
2022/11/18 12:44:38;;;;;;;;;;;;;;;13.73;100.00;97706.72;5042640;28;19923;-44
2022/11/18 12:47:04;;;;;;;;;;;;;;;14.01;100.00;97715.25;5040662;28;19974;-42
2022/11/18 12:49:29;;;;;;;;;;;;;;;13.34;100.00;97710.97;5058218;28;19920;-46
2022/11/18 12:51:55;;;;;;;;;;;;;;;13.32;100.00;97718.00;5058468;28;19960;-45